Time;durP1;ratioP1;P1;durP2;ratioP2;P2;SDS_P1;SDS_P2;PMS_P1;PMS_P2;Temp;Humidity;BMP_temperature;BMP_pressure;BME280_temperature;BME280_humidity;BME280_pressure;Samples;Min_cycle;Max_cycle;Signal;HPM_P1;HPM_P2
2023/07/30 00:02:51;;;;;;;2.13;1.27;;;17.70;99.90;;;;;;6379473;27;20047;-80
2023/07/30 00:05:54;;;;;;;4.50;1.20;;;17.70;99.90;;;;;;6379572;27;20054;-80
2023/07/30 00:08:55;;;;;;;2.58;1.17;;;17.70;99.90;;;;;;6377927;27;20459;-80
2023/07/30 00:11:57;;;;;;;8.23;1.90;;;17.70;99.90;;;;;;6378638;27;20058;-80
2023/07/30 00:15:00;;;;;;;2.78;2.08;;;17.70;99.90;;;;;;6378277;27;20046;-80
2023/07/30 00:18:02;;;;;;;2.10;1.58;;;17.70;99.90;;;;;;6378554;27;20047;-81
2023/07/30 00:21:03;;;;;;;2.95;1.80;;;17.70;99.90;;;;;;6377356;27;20055;-80
2023/07/30 00:24:05;;;;;;;3.30;2.42;;;17.70;99.90;;;;;;6377986;27;20039;-80
2023/07/30 00:27:07;;;;;;;3.92;2.60;;;17.70;99.90;;;;;;6378320;27;20043;-79
2023/07/30 00:30:11;;;;;;;7.75;3.30;;;17.80;99.90;;;;;;6377708;27;20547;-82
2023/07/30 00:33:13;;;;;;;6.13;3.00;;;17.80;99.90;;;;;;6378029;27;20058;-81
2023/07/30 00:36:15;;;;;;;5.50;3.17;;;17.80;99.90;;;;;;6378199;27;20521;-82
2023/07/30 00:39:17;;;;;;;7.28;4.20;;;17.90;99.90;;;;;;6378276;27;20039;-81
2023/07/30 00:42:18;;;;;;;8.23;4.35;;;17.90;99.90;;;;;;6378817;27;20051;-82
2023/07/30 00:45:21;;;;;;;5.15;4.50;;;17.90;99.90;;;;;;6376589;27;20050;-80
2023/07/30 00:48:23;;;;;;;6.57;3.85;;;18.00;99.90;;;;;;6377931;27;21307;-81
2023/07/30 00:51:27;;;;;;;6.85;4.85;;;17.90;99.90;;;;;;6376037;27;20054;-80
2023/07/30 00:54:28;;;;;;;6.20;4.20;;;18.00;99.90;;;;;;6373778;27;20046;-81
2023/07/30 00:57:31;;;;;;;6.97;5.05;;;18.00;99.90;;;;;;6379488;27;20042;-81
2023/07/30 01:00:34;;;;;;;7.13;4.00;;;18.10;99.90;;;;;;6376634;27;20043;-81
2023/07/30 01:03:36;;;;;;;8.05;4.25;;;18.10;99.90;;;;;;6372699;27;20405;-80
2023/07/30 01:06:37;;;;;;;7.13;4.45;;;18.20;99.90;;;;;;6377286;27;20481;-80
2023/07/30 01:09:39;;;;;;;8.85;4.68;;;18.20;99.90;;;;;;6377372;27;20043;-81
2023/07/30 01:12:42;;;;;;;6.85;4.43;;;18.20;99.90;;;;;;6383088;27;20047;-80
2023/07/30 01:15:46;;;;;;;6.45;3.80;;;18.20;99.90;;;;;;6382873;27;20050;-81
2023/07/30 01:18:48;;;;;;;6.85;3.90;;;18.20;99.90;;;;;;6383997;27;20050;-81
2023/07/30 01:21:51;;;;;;;6.70;4.10;;;18.20;99.90;;;;;;6382382;27;20425;-80
2023/07/30 01:24:53;;;;;;;5.57;4.22;;;18.20;99.90;;;;;;6379713;27;20043;-81
2023/07/30 01:27:59;;;;;;;5.57;3.88;;;18.20;99.90;;;;;;6376779;27;20102;-81
2023/07/30 01:31:02;;;;;;;7.25;3.90;;;18.10;99.90;;;;;;6377868;27;20046;-81
2023/07/30 01:34:04;;;;;;;7.00;4.70;;;18.20;99.90;;;;;;6378331;27;20051;-82
2023/07/30 01:37:10;;;;;;;9.77;4.88;;;18.20;99.90;;;;;;6377319;27;20058;-80
2023/07/30 01:40:14;;;;;;;4.70;4.07;;;18.20;99.90;;;;;;6375904;27;20070;-80
2023/07/30 01:43:16;;;;;;;9.27;4.07;;;18.30;99.90;;;;;;6375471;27;20501;-80
2023/07/30 01:46:17;;;;;;;6.70;4.72;;;18.20;99.90;;;;;;6376832;27;20058;-82
2023/07/30 01:49:19;;;;;;;8.43;4.40;;;18.30;99.90;;;;;;6377195;27;20035;-82
2023/07/30 01:52:22;;;;;;;7.05;4.20;;;18.30;99.90;;;;;;6378633;27;20045;-82
2023/07/30 01:55:24;;;;;;;5.72;4.45;;;18.30;99.90;;;;;;6378907;27;20635;-82
2023/07/30 01:58:25;;;;;;;4.55;3.88;;;18.40;99.90;;;;;;6379008;27;20050;-81
2023/07/30 02:01:27;;;;;;;5.50;3.95;;;18.30;99.90;;;;;;6378498;27;20054;-82
2023/07/30 02:04:29;;;;;;;7.88;4.25;;;18.20;99.90;;;;;;6377690;27;20050;-82
2023/07/30 02:07:32;;;;;;;8.07;4.30;;;18.20;99.90;;;;;;6377511;27;20043;-82
2023/07/30 02:10:33;;;;;;;9.77;4.10;;;18.30;99.90;;;;;;6378537;27;20122;-82
2023/07/30 02:13:35;;;;;;;5.15;4.00;;;18.30;99.90;;;;;;6377983;27;20049;-82
2023/07/30 02:16:37;;;;;;;10.68;4.53;;;18.40;99.90;;;;;;6377792;27;20047;-82
2023/07/30 02:19:38;;;;;;;6.05;4.28;;;18.40;99.90;;;;;;6377411;27;20062;-82
2023/07/30 02:22:41;;;;;;;6.80;4.05;;;18.30;99.90;;;;;;6377047;27;20047;-82
2023/07/30 02:25:43;;;;;;;6.03;3.90;;;18.40;99.90;;;;;;6377553;27;20146;-81
2023/07/30 02:28:45;;;;;;;4.55;4.10;;;18.40;99.90;;;;;;6376997;27;20039;-82
2023/07/30 02:31:46;;;;;;;6.45;4.82;;;18.40;99.90;;;;;;6377144;27;20043;-82
2023/07/30 02:34:48;;;;;;;7.65;5.20;;;18.40;99.90;;;;;;6377802;27;20053;-82
2023/07/30 02:37:51;;;;;;;9.25;4.30;;;18.40;99.90;;;;;;6378411;27;20054;-82
2023/07/30 02:40:53;;;;;;;7.50;4.40;;;18.30;99.90;;;;;;6377772;27;20043;-80
2023/07/30 02:43:55;;;;;;;7.95;4.70;;;18.40;99.90;;;;;;6377513;27;20050;-83
2023/07/30 02:46:56;;;;;;;6.65;4.80;;;18.40;99.90;;;;;;6379276;28;20055;-82
2023/07/30 02:49:58;;;;;;;10.90;5.15;;;18.40;99.90;;;;;;6377639;28;20054;-81
2023/07/30 02:53:01;;;;;;;6.55;5.22;;;18.40;99.90;;;;;;6377148;28;20043;-80
2023/07/30 02:56:03;;;;;;;14.82;6.43;;;18.40;99.90;;;;;;6375663;28;20043;-82
2023/07/30 02:59:04;;;;;;;9.10;6.18;;;18.40;99.90;;;;;;6376035;28;20050;-82
2023/07/30 03:02:06;;;;;;;11.95;6.32;;;18.50;99.90;;;;;;6376739;28;20046;-79
2023/07/30 03:05:08;;;;;;;7.53;5.97;;;18.40;99.90;;;;;;6375890;28;20043;-81
2023/07/30 03:08:11;;;;;;;9.07;6.47;;;18.40;99.90;;;;;;6374572;28;20070;-79
2023/07/30 03:11:13;;;;;;;12.15;6.57;;;18.50;99.90;;;;;;6371992;28;20044;-82
2023/07/30 03:14:15;;;;;;;8.30;6.40;;;18.50;99.90;;;;;;6378575;27;20051;-81
2023/07/30 03:17:17;;;;;;;10.77;6.78;;;18.50;99.90;;;;;;6381047;27;20057;-80
2023/07/30 03:20:19;;;;;;;14.98;8.27;;;18.50;99.90;;;;;;6380145;27;20514;-80
2023/07/30 03:23:22;;;;;;;13.32;7.10;;;18.50;99.90;;;;;;6379256;27;20074;-81
2023/07/30 03:26:23;;;;;;;7.80;6.32;;;18.60;99.90;;;;;;6380714;27;20051;-80
2023/07/30 03:29:25;;;;;;;7.55;5.75;;;18.50;99.90;;;;;;6380413;27;20039;-80
2023/07/30 03:32:27;;;;;;;6.85;5.25;;;18.50;99.90;;;;;;6382673;27;20043;-81
2023/07/30 03:35:28;;;;;;;6.03;4.13;;;18.50;99.90;;;;;;6383127;27;20047;-80
2023/07/30 03:38:31;;;;;;;6.17;4.43;;;18.50;99.90;;;;;;6382475;27;20429;-82
2023/07/30 03:41:35;;;;;;;6.60;5.38;;;18.50;99.90;;;;;;6380550;27;20544;-82
2023/07/30 03:44:36;;;;;;;6.43;5.45;;;18.50;99.90;;;;;;6381331;27;20058;-81
2023/07/30 03:47:38;;;;;;;8.02;5.55;;;18.50;99.90;;;;;;6380304;27;20072;-80
2023/07/30 03:50:40;;;;;;;17.67;8.48;;;18.50;99.90;;;;;;6380706;27;20050;-81
2023/07/30 03:53:43;;;;;;;6.45;5.32;;;18.50;99.90;;;;;;6381128;27;20047;-80
2023/07/30 03:56:45;;;;;;;7.70;5.30;;;18.50;99.90;;;;;;6380489;27;20100;-80
2023/07/30 03:59:46;;;;;;;6.80;5.68;;;18.40;99.90;;;;;;6379769;27;20047;-79
2023/07/30 04:02:48;;;;;;;9.90;5.53;;;18.40;99.90;;;;;;6381576;27;20051;-83
2023/07/30 04:05:50;;;;;;;6.68;4.43;;;18.40;99.90;;;;;;6380363;27;20051;-82
2023/07/30 04:08:53;;;;;;;9.02;4.25;;;18.40;99.90;;;;;;6379500;27;20394;-80
2023/07/30 04:11:54;;;;;;;5.43;4.00;;;18.20;99.90;;;;;;6378977;27;20047;-81
2023/07/30 04:14:56;;;;;;;4.90;3.50;;;18.00;99.90;;;;;;6379547;27;20150;-81
2023/07/30 04:17:58;;;;;;;7.22;3.58;;;17.90;99.90;;;;;;6380291;27;20047;-82
2023/07/30 04:20:59;;;;;;;3.95;3.38;;;17.80;99.90;;;;;;6381291;27;20047;-80
2023/07/30 04:24:02;;;;;;;9.50;3.47;;;17.70;99.90;;;;;;6380836;27;20048;-79
2023/07/30 04:27:04;;;;;;;4.40;3.10;;;17.70;99.90;;;;;;6342948;27;20043;-79
2023/07/30 04:30:07;;;;;;;5.47;3.78;;;17.60;99.90;;;;;;6358182;27;20051;-78
2023/07/30 04:33:09;;;;;;;4.82;3.75;;;17.60;99.90;;;;;;6371714;27;20039;-79
2023/07/30 04:36:11;;;;;;;11.65;3.47;;;17.50;99.90;;;;;;6378720;27;20043;-77
2023/07/30 04:39:14;;;;;;;7.90;3.72;;;17.50;99.90;;;;;;6376743;27;20050;-79
2023/07/30 04:42:16;;;;;;;5.57;4.13;;;17.60;99.90;;;;;;6380342;27;20043;-78
2023/07/30 04:45:18;;;;;;;7.60;3.75;;;17.50;99.90;;;;;;6371131;27;20421;-79
2023/07/30 04:48:20;;;;;;;12.95;4.70;;;17.50;99.90;;;;;;6369348;27;20142;-78
2023/07/30 04:51:22;;;;;;;6.28;4.03;;;17.60;99.90;;;;;;6358742;27;20043;-81
2023/07/30 04:54:26;;;;;;;7.28;3.67;;;17.50;99.90;;;;;;6370903;27;20433;-80
2023/07/30 04:57:28;;;;;;;5.93;3.63;;;17.60;99.90;;;;;;6370622;27;20760;-80
2023/07/30 05:00:30;;;;;;;5.78;4.25;;;17.60;99.90;;;;;;6364133;27;20474;-80
2023/07/30 05:03:33;;;;;;;6.57;4.82;;;17.60;99.90;;;;;;6373390;27;20051;-79
2023/07/30 05:06:38;;;;;;;6.75;5.00;;;17.60;99.90;;;;;;6370363;27;20047;-80
2023/07/30 05:09:41;;;;;;;12.57;6.85;;;17.70;99.90;;;;;;6372629;27;20130;-78
2023/07/30 05:12:43;;;;;;;9.27;6.43;;;17.70;99.90;;;;;;6373357;27;20043;-79
2023/07/30 05:15:46;;;;;;;9.40;6.22;;;17.80;99.90;;;;;;6372396;27;20054;-78
2023/07/30 05:18:48;;;;;;;7.45;6.38;;;17.90;99.90;;;;;;6373177;27;20403;-78
2023/07/30 05:21:50;;;;;;;9.43;6.70;;;18.10;99.90;;;;;;6373760;27;20043;-77
2023/07/30 05:24:54;;;;;;;8.60;7.53;;;18.20;99.90;;;;;;6373526;27;20047;-77
2023/07/30 05:27:56;;;;;;;13.30;7.80;;;18.30;99.90;;;;;;6372623;27;20130;-80
2023/07/30 05:31:00;;;;;;;9.38;7.80;;;18.40;99.90;;;;;;6367794;27;20043;-78
2023/07/30 05:34:02;;;;;;;8.63;7.65;;;18.50;99.90;;;;;;6375120;27;20122;-78
2023/07/30 05:37:04;;;;;;;9.77;7.07;;;18.60;99.90;;;;;;6373317;27;20137;-79
2023/07/30 05:40:09;;;;;;;10.75;7.10;;;18.70;99.90;;;;;;6374730;27;20036;-79
2023/07/30 05:43:11;;;;;;;8.93;7.18;;;18.80;99.90;;;;;;6374726;27;20055;-78
2023/07/30 05:46:13;;;;;;;8.70;7.80;;;18.90;99.90;;;;;;6376095;27;20054;-79
2023/07/30 05:49:15;;;;;;;6.82;6.07;;;19.10;99.90;;;;;;6374956;27;20111;-80
2023/07/30 05:52:17;;;;;;;7.45;6.63;;;19.30;99.90;;;;;;6376299;27;20050;-79
2023/07/30 05:55:20;;;;;;;14.02;8.77;;;19.40;99.90;;;;;;6376027;27;20398;-78
2023/07/30 05:58:21;;;;;;;6.00;5.32;;;19.70;99.90;;;;;;6374656;27;20051;-78
2023/07/30 06:01:23;;;;;;;5.53;4.97;;;19.80;99.90;;;;;;6367009;27;20039;-79
2023/07/30 06:04:25;;;;;;;5.78;5.18;;;20.10;99.90;;;;;;6374036;27;20047;-79
2023/07/30 06:07:27;;;;;;;7.78;5.57;;;20.00;99.90;;;;;;6373572;27;20077;-78
2023/07/30 06:10:31;;;;;;;6.22;5.47;;;19.90;99.90;;;;;;6373903;27;20125;-78
2023/07/30 06:13:33;;;;;;;7.38;4.82;;;19.80;99.90;;;;;;6374496;27;20050;-78
2023/07/30 06:16:34;;;;;;;6.97;4.78;;;19.60;99.90;;;;;;6375174;27;20054;-78
2023/07/30 06:19:36;;;;;;;5.25;4.75;;;19.40;99.90;;;;;;6375485;27;20134;-78
2023/07/30 06:22:38;;;;;;;5.63;4.85;;;19.30;99.90;;;;;;6374221;27;20138;-78
2023/07/30 06:25:42;;;;;;;13.20;4.75;;;19.10;99.90;;;;;;6348675;28;20062;-77
2023/07/30 06:28:44;;;;;;;3.75;3.28;;;18.90;99.90;;;;;;6348739;28;20426;-78
2023/07/30 06:31:45;;;;;;;7.82;4.55;;;18.80;99.90;;;;;;6341940;28;20043;-79
2023/07/30 06:34:47;;;;;;;7.63;5.13;;;18.70;99.90;;;;;;6347133;28;20047;-78
2023/07/30 06:37:50;;;;;;;10.57;5.63;;;18.60;99.90;;;;;;6347868;28;20052;-78
2023/07/30 06:40:53;;;;;;;6.65;5.47;;;18.60;99.90;;;;;;6345380;28;20050;-77
2023/07/30 06:43:55;;;;;;;7.38;4.93;;;18.60;99.90;;;;;;6347100;28;20040;-79
2023/07/30 06:46:57;;;;;;;7.40;6.00;;;18.60;99.90;;;;;;6346863;28;20077;-79
2023/07/30 06:49:59;;;;;;;9.55;7.05;;;18.70;99.90;;;;;;6346604;28;20044;-78
2023/07/30 06:53:00;;;;;;;7.75;6.95;;;18.80;99.90;;;;;;6367140;27;20127;-78
2023/07/30 06:56:05;;;;;;;7.97;6.20;;;18.90;99.90;;;;;;6371450;27;20043;-79
2023/07/30 06:59:07;;;;;;;8.88;6.03;;;18.90;99.90;;;;;;6371456;27;20069;-79
2023/07/30 07:02:09;;;;;;;9.60;6.57;;;19.00;99.90;;;;;;6367302;28;20520;-78
2023/07/30 07:05:11;;;;;;;7.28;6.07;;;18.90;99.90;;;;;;6332873;28;20437;-78
2023/07/30 07:08:12;;;;;;;12.35;8.40;;;18.90;99.90;;;;;;6321206;28;20056;-79
2023/07/30 07:11:16;;;;;;;8.05;7.22;;;18.90;99.90;;;;;;6323980;28;20055;-79
2023/07/30 07:14:18;;;;;;;10.70;6.43;;;18.90;99.90;;;;;;6331889;28;20051;-79
2023/07/30 07:17:20;;;;;;;10.77;6.35;;;18.90;99.90;;;;;;6348700;28;20062;-80
2023/07/30 07:20:21;;;;;;;9.48;6.53;;;18.90;99.90;;;;;;6348638;28;20108;-80
2023/07/30 07:23:23;;;;;;;8.43;7.35;;;18.90;99.90;;;;;;6354355;28;20052;-79
2023/07/30 07:26:26;;;;;;;11.00;7.05;;;19.00;99.90;;;;;;6356142;28;20047;-79
2023/07/30 07:29:29;;;;;;;21.55;12.18;;;19.00;99.90;;;;;;6347372;28;20056;-79
2023/07/30 07:32:37;;;;;;;10.65;7.90;;;19.20;99.90;;;;;;6327377;28;20043;-78
2023/07/30 07:35:39;;;;;;;8.02;5.65;;;19.40;99.90;;;;;;6333580;28;20054;-79
2023/07/30 07:38:41;;;;;;;6.28;5.68;;;19.60;99.90;;;;;;6331248;28;20439;-79
2023/07/30 07:41:45;;;;;;;7.75;6.50;;;19.80;99.90;;;;;;6336511;28;20082;-79
2023/07/30 07:44:47;;;;;;;9.15;6.00;;;19.90;99.90;;;;;;6336273;28;20067;-78
2023/07/30 07:47:49;;;;;;;9.70;6.13;;;19.90;99.90;;;;;;6348269;28;20050;-80
2023/07/30 07:50:50;;;;;;;8.15;5.95;;;19.90;99.90;;;;;;6331401;28;20044;-77
2023/07/30 07:53:52;;;;;;;10.10;5.38;;;19.90;99.90;;;;;;6340805;28;20052;-78
2023/07/30 07:56:55;;;;;;;4.90;4.50;;;20.00;99.90;;;;;;6345018;28;20044;-79
2023/07/30 07:59:58;;;;;;;5.88;5.03;;;20.50;99.90;;;;;;6340649;28;20046;-78
2023/07/30 08:06:44;;;;;;;4.80;4.40;;;21.30;99.90;;;;;;6355238;28;20059;-76
2023/07/30 08:09:46;;;;;;;4.22;3.92;;;21.50;99.90;;;;;;6343110;28;20055;-77
2023/07/30 08:12:48;;;;;;;5.07;3.85;;;21.70;99.90;;;;;;6324437;28;20048;-78
2023/07/30 08:15:51;;;;;;;4.07;3.65;;;22.10;99.90;;;;;;6324409;28;20051;-78
2023/07/30 08:18:52;;;;;;;3.30;3.08;;;22.60;99.90;;;;;;6324724;28;20074;-80
2023/07/30 08:22:14;;;;;;;4.40;2.70;;;23.00;99.90;;;;;;6340838;28;20527;-81
2023/07/30 08:25:17;;;;;;;3.65;2.33;;;23.00;99.90;;;;;;6343115;28;20048;-81
2023/07/30 08:28:20;;;;;;;4.63;2.25;;;22.80;99.90;;;;;;6334808;28;20113;-78
2023/07/30 08:31:22;;;;;;;5.75;2.78;;;22.70;99.90;;;;;;6332709;28;20411;-79
2023/07/30 08:34:23;;;;;;;3.08;2.13;;;22.60;99.90;;;;;;6333488;28;20044;-79
2023/07/30 08:37:25;;;;;;;3.05;2.20;;;22.40;99.90;;;;;;6328979;28;20097;-78
2023/07/30 08:40:27;;;;;;;2.45;1.88;;;22.20;99.90;;;;;;6324536;28;20494;-79
2023/07/30 08:43:31;;;;;;;2.53;1.92;;;22.40;99.90;;;;;;6325947;28;20044;-79
2023/07/30 08:46:33;;;;;;;5.22;2.25;;;22.90;99.90;;;;;;6327504;28;20048;-80
2023/07/30 08:49:35;;;;;;;2.58;2.38;;;23.20;99.90;;;;;;6343616;28;20058;-80
2023/07/30 08:52:37;;;;;;;2.28;2.03;;;23.60;99.90;;;;;;6364219;27;20043;-80
2023/07/30 08:55:40;;;;;;;2.05;1.88;;;23.70;99.90;;;;;;6366974;27;20061;-81
2023/07/30 08:58:45;;;;;;;2.63;1.83;;;24.10;99.90;;;;;;6342882;28;20044;-80
2023/07/30 09:01:51;;;;;;;2.88;2.05;;;24.30;99.90;;;;;;6333163;28;20051;-82
2023/07/30 09:04:57;;;;;;;3.00;1.73;;;24.60;99.90;;;;;;6346716;28;20048;-80
2023/07/30 09:07:59;;;;;;;2.05;1.77;;;24.90;99.90;;;;;;6336033;28;20036;-81
2023/07/30 09:11:08;;;;;;;5.32;2.80;;;25.10;99.90;;;;;;6328101;28;20040;-80
2023/07/30 09:14:11;;;;;;;2.63;1.88;;;25.30;99.90;;;;;;6341371;28;20502;-80
2023/07/30 09:17:18;;;;;;;2.97;2.35;;;25.50;99.90;;;;;;6351495;28;20043;-79
2023/07/30 09:20:20;;;;;;;1.75;1.52;;;25.40;99.90;;;;;;6357211;27;20120;-79
2023/07/30 09:23:21;;;;;;;9.18;2.58;;;25.00;99.90;;;;;;6367078;27;20036;-79
2023/07/30 09:26:23;;;;;;;3.17;2.38;;;25.00;99.90;;;;;;6330343;28;20364;-80
2023/07/30 09:29:26;;;;;;;2.63;2.05;;;25.00;99.90;;;;;;6335350;28;20396;-80
2023/07/30 09:32:29;;;;;;;5.32;1.83;;;25.20;99.90;;;;;;6334516;28;20048;-80
2023/07/30 09:35:34;;;;;;;5.40;2.42;;;25.20;99.90;;;;;;6333220;28;20048;-81
2023/07/30 09:38:46;;;;;;;4.03;1.92;;;25.10;99.90;;;;;;6339727;28;20062;-81
2023/07/30 09:42:09;;;;;;;4.53;2.38;;;24.90;99.90;;;;;;6351889;28;20040;-81
2023/07/30 09:45:45;;;;;;;4.20;2.08;;;24.80;99.90;;;;;;6338092;28;20071;-82
2023/07/30 09:48:49;;;;;;;4.30;2.40;;;24.90;99.90;;;;;;6381112;27;20110;-81
2023/07/30 09:51:52;;;;;;;2.50;1.92;;;25.00;99.90;;;;;;6373772;27;20439;-82
2023/07/30 09:54:58;;;;;;;3.88;2.03;;;25.10;99.90;;;;;;6351663;28;20043;-81
2023/07/30 09:58:04;;;;;;;2.42;1.88;;;24.90;99.90;;;;;;6355860;28;20043;-81
2023/07/30 10:01:10;;;;;;;2.40;1.45;;;24.50;99.90;;;;;;6381974;27;20107;-82
2023/07/30 10:04:15;;;;;;;3.13;1.90;;;23.70;99.90;;;;;;6362758;27;20050;-82
2023/07/30 10:07:22;;;;;;;5.03;2.00;;;23.20;99.90;;;;;;6350113;28;20044;-81
2023/07/30 10:10:30;;;;;;;3.45;2.10;;;23.00;99.90;;;;;;6351348;28;20048;-81
2023/07/30 10:13:33;;;;;;;3.33;2.72;;;22.90;99.90;;;;;;6328468;28;20036;-81
2023/07/30 10:16:40;;;;;;;2.72;2.30;;;22.80;99.90;;;;;;6352872;28;20073;-81
2023/07/30 10:19:49;;;;;;;4.30;1.77;;;22.80;99.90;;;;;;6353257;28;20096;-81
2023/07/30 10:22:53;;;;;;;4.97;1.98;;;22.60;99.90;;;;;;6349424;28;20107;-80
2023/07/30 10:25:56;;;;;;;2.92;1.60;;;22.50;99.90;;;;;;6350231;28;20044;-81
2023/07/30 10:29:19;;;;;;;7.15;2.15;;;22.30;99.90;;;;;;6352530;28;20035;-80
2023/07/30 10:32:38;;;;;;;3.08;1.90;;;22.30;99.90;;;;;;6328194;28;20060;-80
2023/07/30 10:35:42;;;;;;;1.67;1.40;;;22.20;99.90;;;;;;6341636;28;20530;-81
2023/07/30 10:38:45;;;;;;;2.35;2.13;;;22.30;99.90;;;;;;6343664;28;20153;-81
2023/07/30 10:41:47;;;;;;;5.45;1.95;;;22.70;99.90;;;;;;6321137;28;20047;-82
2023/07/30 10:44:50;;;;;;;2.45;1.88;;;22.90;99.90;;;;;;6372694;27;20043;-80
2023/07/30 10:47:53;;;;;;;5.10;1.88;;;23.00;99.90;;;;;;6383563;28;20057;-79
2023/07/30 10:50:56;;;;;;;2.25;2.00;;;22.90;99.90;;;;;;6382715;28;20049;-82
2023/07/30 10:53:58;;;;;;;3.47;2.25;;;23.00;99.90;;;;;;6383920;28;20428;-81
2023/07/30 10:57:01;;;;;;;2.45;1.40;;;23.30;99.90;;;;;;6382924;28;20039;-82
2023/07/30 11:00:04;;;;;;;1.77;1.48;;;23.70;99.90;;;;;;6376790;28;20044;-82
2023/07/30 11:03:07;;;;;;;2.58;1.05;;;23.80;99.90;;;;;;6385239;28;20064;-82
2023/07/30 11:06:09;;;;;;;2.00;0.80;;;24.00;99.90;;;;;;6387525;28;20047;-81
2023/07/30 11:09:19;;;;;;;0.77;0.73;;;24.30;99.90;;;;;;6388940;28;20506;-81
2023/07/30 11:12:22;;;;;;;2.58;0.77;;;24.30;99.90;;;;;;6390329;28;20134;-83
2023/07/30 11:15:25;;;;;;;2.65;1.30;;;24.20;99.90;;;;;;6380963;28;20076;-81
2023/07/30 11:18:32;;;;;;;2.45;1.50;;;24.10;99.90;;;;;;6385314;28;20048;-83
2023/07/30 11:21:35;;;;;;;2.85;1.45;;;24.10;99.90;;;;;;6379103;28;20073;-82
2023/07/30 11:24:38;;;;;;;2.15;1.00;;;24.30;99.90;;;;;;6379137;28;20086;-81
2023/07/30 11:27:46;;;;;;;1.52;1.10;;;24.40;99.90;;;;;;6377814;28;20043;-83
2023/07/30 11:30:48;;;;;;;1.65;1.20;;;24.80;99.90;;;;;;6383941;28;20047;-82
2023/07/30 11:33:52;;;;;;;2.20;1.13;;;25.00;99.90;;;;;;6382198;27;20058;-82
2023/07/30 11:36:54;;;;;;;1.42;0.82;;;25.30;99.90;;;;;;6386757;27;20054;-83
2023/07/30 11:39:56;;;;;;;2.35;1.38;;;25.60;99.90;;;;;;6385722;27;20138;-81
2023/07/30 11:42:59;;;;;;;4.78;1.65;;;25.90;99.90;;;;;;6384976;27;20137;-82
2023/07/30 11:46:09;;;;;;;3.13;1.20;;;26.30;99.90;;;;;;6386640;27;20184;-82
2023/07/30 11:49:16;;;;;;;4.78;1.30;;;26.60;99.90;;;;;;6386744;27;20049;-84
2023/07/30 11:52:18;;;;;;;2.67;1.25;;;26.70;99.90;;;;;;6387086;27;20043;-81
2023/07/30 11:55:20;;;;;;;5.10;1.13;;;26.80;99.90;;;;;;6386145;27;20047;-80
2023/07/30 11:58:22;;;;;;;5.30;1.40;;;27.00;99.90;;;;;;6384035;27;20051;-81
2023/07/30 12:01:26;;;;;;;2.03;1.20;;;27.00;99.90;;;;;;6384396;27;20035;-82
2023/07/30 12:04:43;;;;;;;1.52;0.90;;;26.50;99.90;;;;;;6379533;27;20039;-81
2023/07/30 12:07:48;;;;;;;3.33;1.33;;;25.90;99.90;;;;;;6377958;27;20054;-80
2023/07/30 12:10:52;;;;;;;4.22;1.55;;;25.60;99.90;;;;;;6380312;27;20305;-82
2023/07/30 12:13:54;;;;;;;4.55;1.42;;;25.40;99.90;;;;;;6385991;27;20054;-82
2023/07/30 12:16:56;;;;;;;2.47;2.28;;;25.10;99.90;;;;;;6384528;27;20049;-80
2023/07/30 12:20:06;;;;;;;2.40;1.23;;;25.30;99.90;;;;;;6387974;27;20039;-81
2023/07/30 12:23:07;;;;;;;4.25;2.38;;;25.70;99.90;;;;;;6378749;27;20047;-81
2023/07/30 12:26:09;;;;;;;5.28;1.67;;;25.80;99.90;;;;;;6378806;27;20043;-81
2023/07/30 12:29:11;;;;;;;2.60;1.20;;;25.80;99.90;;;;;;6382465;27;20312;-80
2023/07/30 12:32:13;;;;;;;5.43;1.20;;;25.60;99.90;;;;;;6385772;27;20035;-81
2023/07/30 12:35:16;;;;;;;3.28;1.52;;;25.20;99.90;;;;;;6386234;27;20057;-81
2023/07/30 12:38:17;;;;;;;7.88;1.77;;;24.90;99.90;;;;;;6385320;27;20133;-81
2023/07/30 12:41:25;;;;;;;3.05;1.42;;;24.80;99.90;;;;;;6385622;27;20493;-81
2023/07/30 12:44:27;;;;;;;2.95;1.83;;;24.60;99.90;;;;;;6384971;27;20047;-81
2023/07/30 12:47:28;;;;;;;8.80;1.60;;;24.60;99.90;;;;;;6383350;27;20047;-81
2023/07/30 12:50:31;;;;;;;2.85;1.40;;;24.90;99.90;;;;;;6381998;27;20102;-81
2023/07/30 12:53:33;;;;;;;6.70;1.40;;;25.40;99.90;;;;;;6374404;27;20050;-81
2023/07/30 12:56:35;;;;;;;1.92;1.17;;;25.90;99.90;;;;;;6380569;27;20054;-79
2023/07/30 12:59:36;;;;;;;3.38;1.35;;;26.20;99.90;;;;;;6380140;27;20078;-79
2023/07/30 13:02:38;;;;;;;2.70;1.20;;;26.20;99.90;;;;;;6381166;27;20051;-79
2023/07/30 13:05:41;;;;;;;2.40;1.30;;;26.20;99.90;;;;;;6378209;27;20047;-79
2023/07/30 13:08:43;;;;;;;2.22;1.25;;;26.30;99.90;;;;;;6376381;27;20058;-80
2023/07/30 13:11:44;;;;;;;4.90;1.70;;;26.40;99.90;;;;;;6378983;27;20035;-79
2023/07/30 13:14:46;;;;;;;3.72;1.58;;;26.60;99.90;;;;;;6378513;27;20062;-79
2023/07/30 13:17:48;;;;;;;4.65;1.27;;;26.70;99.90;;;;;;6376206;27;20058;-79
2023/07/30 13:20:51;;;;;;;1.45;1.25;;;26.80;99.90;;;;;;6372211;27;20426;-79
2023/07/30 13:23:52;;;;;;;2.35;1.30;;;26.90;99.60;;;;;;6370621;27;20354;-80
2023/07/30 13:26:55;;;;;;;5.80;1.40;;;26.70;99.20;;;;;;6375537;27;20421;-79
2023/07/30 13:29:56;;;;;;;2.97;1.27;;;26.60;99.20;;;;;;6373461;27;20055;-79
2023/07/30 13:32:58;;;;;;;2.45;0.98;;;26.40;97.20;;;;;;6376039;27;20235;-80
2023/07/30 13:36:01;;;;;;;2.95;1.63;;;26.50;96.60;;;;;;6376480;27;20043;-79
2023/07/30 13:39:03;;;;;;;2.30;1.10;;;26.30;94.60;;;;;;6376193;27;20043;-79
2023/07/30 13:42:05;;;;;;;2.78;1.23;;;26.30;92.90;;;;;;6378178;27;20401;-79
2023/07/30 13:45:08;;;;;;;2.45;1.35;;;26.50;93.50;;;;;;6364628;27;20113;-78
2023/07/30 13:48:09;;;;;;;1.58;0.75;;;26.70;92.60;;;;;;6357662;27;20505;-79
2023/07/30 13:51:13;;;;;;;1.55;1.10;;;26.60;91.30;;;;;;6376118;27;20068;-80
2023/07/30 13:54:14;;;;;;;16.42;3.13;;;26.90;92.10;;;;;;6376829;27;20057;-79
2023/07/30 13:57:22;;;;;;;6.20;2.33;;;27.00;91.70;;;;;;6376857;27;20047;-79
2023/07/30 14:00:24;;;;;;;10.55;2.50;;;27.30;90.80;;;;;;6375568;27;20151;-79
2023/07/30 14:03:26;;;;;;;2.55;1.00;;;27.40;90.00;;;;;;6375958;27;20043;-79
2023/07/30 14:06:30;;;;;;;3.85;1.50;;;27.40;87.20;;;;;;6376763;27;20054;-79
2023/07/30 14:09:35;;;;;;;4.00;1.15;;;27.30;81.10;;;;;;6375811;27;20057;-79
2023/07/30 14:12:36;;;;;;;4.20;1.75;;;27.30;79.60;;;;;;6375658;27;20055;-78
2023/07/30 14:15:38;;;;;;;4.45;1.13;;;27.20;77.50;;;;;;6375160;27;20039;-79
2023/07/30 14:18:40;;;;;;;4.63;1.70;;;27.20;76.90;;;;;;6375507;27;20047;-80
2023/07/30 14:21:43;;;;;;;1.67;1.02;;;27.30;74.60;;;;;;6376419;27;20166;-81
2023/07/30 14:24:45;;;;;;;4.10;1.30;;;27.30;73.00;;;;;;6377543;27;20444;-82
2023/07/30 14:27:47;;;;;;;2.70;1.58;;;27.30;72.30;;;;;;6368628;27;20039;-79
2023/07/30 14:30:49;;;;;;;6.25;1.67;;;27.20;71.20;;;;;;6357855;27;20518;-79
2023/07/30 14:33:51;;;;;;;3.50;1.40;;;27.00;69.10;;;;;;6377993;27;20050;-79
2023/07/30 14:36:54;;;;;;;4.18;1.10;;;27.00;68.70;;;;;;6377347;27;20059;-79
2023/07/30 14:39:56;;;;;;;3.72;1.55;;;27.00;67.40;;;;;;6377426;27;20054;-80
2023/07/30 14:42:57;;;;;;;2.60;1.08;;;27.00;67.20;;;;;;6376709;27;20438;-79
2023/07/30 14:45:59;;;;;;;4.82;2.20;;;27.00;67.60;;;;;;6377924;27;20055;-78
2023/07/30 14:49:02;;;;;;;2.55;1.58;;;27.20;67.70;;;;;;6375982;28;20490;-80
2023/07/30 14:52:05;;;;;;;6.35;3.13;;;27.20;66.70;;;;;;6376609;28;20054;-79
2023/07/30 14:55:08;;;;;;;1.98;0.80;;;27.30;66.30;;;;;;6374733;28;20110;-79
2023/07/30 14:58:10;;;;;;;5.22;0.98;;;27.60;66.30;;;;;;6375905;28;20417;-78
2023/07/30 15:01:11;;;;;;;4.75;1.08;;;27.90;64.50;;;;;;6375579;28;20063;-78
2023/07/30 15:04:14;;;;;;;5.35;1.20;;;27.60;63.50;;;;;;6376645;28;20058;-80
2023/07/30 15:07:17;;;;;;;5.13;1.85;;;27.60;63.20;;;;;;6376482;28;20039;-78
2023/07/30 15:10:20;;;;;;;9.10;1.48;;;27.60;63.00;;;;;;6380352;27;20074;-80
2023/07/30 15:13:25;;;;;;;3.40;1.20;;;27.80;63.30;;;;;;6381230;27;20049;-78
2023/07/30 15:16:26;;;;;;;1.20;0.80;;;27.90;62.40;;;;;;6373056;27;20047;-80
2023/07/30 15:19:28;;;;;;;4.30;1.02;;;28.00;60.70;;;;;;6380419;27;20039;-79
2023/07/30 15:22:31;;;;;;;4.80;1.30;;;27.90;60.50;;;;;;6376087;27;20043;-79
2023/07/30 15:25:33;;;;;;;3.00;1.00;;;27.90;58.70;;;;;;6379613;27;20043;-80
2023/07/30 15:28:34;;;;;;;3.53;1.20;;;27.70;59.10;;;;;;6378057;27;20035;-79
2023/07/30 15:31:37;;;;;;;8.02;4.78;;;27.80;58.90;;;;;;6380007;27;20117;-79
2023/07/30 15:34:39;;;;;;;5.85;2.90;;;28.00;58.80;;;;;;6381807;27;20496;-79
2023/07/30 15:37:43;;;;;;;5.50;1.67;;;28.20;58.40;;;;;;6380739;27;20051;-80
2023/07/30 15:40:45;;;;;;;4.45;1.17;;;28.30;57.40;;;;;;6379740;27;20050;-79
2023/07/30 15:43:47;;;;;;;5.82;1.20;;;28.10;56.50;;;;;;6378601;27;20046;-80
2023/07/30 15:46:49;;;;;;;4.80;1.23;;;28.10;56.40;;;;;;6370003;27;20047;-79
2023/07/30 15:49:51;;;;;;;2.17;1.08;;;28.10;57.10;;;;;;6378906;27;20043;-80
2023/07/30 15:52:54;;;;;;;2.65;1.17;;;28.30;57.00;;;;;;6377077;27;20144;-79
2023/07/30 15:55:56;;;;;;;3.90;1.10;;;28.30;56.80;;;;;;6379312;27;20095;-79